« Back
NWS Peachtree City, Ga » Text Product » CSG Terminal Aerodrome Forecast


Printer-friendly Version
Current Version              Previous Versions:   1  2  3  4  5  6  7  8  9  

Terminal Aerodrome Forecast

137
FTUS42 KFFC 190336 AAA
TAFCSG
TAF AMD
KCSG 190336Z 1904/1924 VRB04KT 4SM -SHRA BKN020 BKN040
     FM190500 15005KT 6SM -RA OVC015
     FM190900 18006KT 4SM -SHRA BR OVC009
      TEMPO 1912/1915 4SM -TSRA BKN010CB
     FM191500 19008G16KT 4SM -TSRA BKN010CB OVC025
     FM191700 21010G18KT P6SM BKN015
     FM192100 21010G18KT P6SM BKN030=



USA.gov is the U.S. government's official web portal to all federal, state and local government web resources and services.